createdAt,value
2023-05-04T00:05:10.506Z,5.03
2023-05-04T00:15:14.128Z,4.79
2023-05-04T00:25:21.330Z,4.41
2023-05-04T00:35:25.463Z,4.41
2023-05-04T00:45:29.694Z,4.74
2023-05-04T00:55:41.661Z,5.12
2023-05-04T01:06:16.494Z,5.50
2023-05-04T01:16:22.127Z,5.82
2023-05-04T01:26:31.774Z,6.06
2023-05-04T01:36:36.469Z,6.22
2023-05-04T01:46:43.249Z,6.33
2023-05-04T01:56:48.965Z,6.27
2023-05-04T02:06:52.802Z,6.18
2023-05-04T02:16:56.579Z,6.09
2023-05-04T02:27:00.234Z,6.08
2023-05-04T02:37:07.085Z,5.57
2023-05-04T02:47:13.654Z,5.04
2023-05-04T02:57:18.250Z,5.76
2023-05-04T03:07:21.954Z,6.29
2023-05-04T03:17:27.216Z,6.51
2023-05-04T03:27:32.825Z,6.62
2023-05-04T03:37:36.581Z,6.48
2023-05-04T03:47:42.343Z,7.12
2023-05-04T03:57:46.345Z,7.73
2023-05-04T04:07:50.581Z,8.12
2023-05-04T04:17:58.375Z,8.52
2023-05-04T04:28:02.231Z,8.74
2023-05-04T04:38:07.683Z,9.53
2023-05-04T04:48:13.628Z,11.96
2023-05-04T04:58:17.200Z,12.19
2023-05-04T05:08:23.561Z,12.26
2023-05-04T05:18:27.434Z,12.75
2023-05-04T05:28:32.711Z,13.36
2023-05-04T05:38:37.350Z,14.00
2023-05-04T05:48:41.518Z,14.71
2023-05-04T05:58:46.713Z,15.29
2023-05-04T06:08:50.411Z,15.69
2023-05-04T06:18:53.979Z,15.85
2023-05-04T06:28:59.508Z,15.62
2023-05-04T06:39:03.191Z,15.24
2023-05-04T06:49:07.070Z,15.21
2023-05-04T06:59:10.821Z,15.23
2023-05-04T07:09:18.807Z,15.31
2023-05-04T07:19:22.524Z,15.69
2023-05-04T07:29:26.752Z,16.15
2023-05-04T07:39:30.537Z,16.00
2023-05-04T07:49:34.585Z,16.28
2023-05-04T07:59:38.229Z,17.08
2023-05-04T08:09:41.938Z,17.19
2023-05-04T08:19:48.330Z,17.34
2023-05-04T08:29:52.292Z,17.41
2023-05-04T08:39:57.915Z,17.67
2023-05-04T08:50:03.665Z,18.19
2023-05-04T09:00:11.325Z,18.59
2023-05-04T09:10:17.040Z,17.94
2023-05-04T09:20:21.701Z,18.03
2023-05-04T09:30:25.442Z,18.55
2023-05-04T09:40:32.910Z,19.46
2023-05-04T09:50:38.270Z,20.15
2023-05-04T10:00:42.969Z,21.01
2023-05-04T10:10:46.788Z,20.87
2023-05-04T10:21:03.043Z,19.78
2023-05-04T10:31:07.647Z,20.10
2023-05-04T10:41:19.870Z,21.02
2023-05-04T10:51:32.623Z,21.94
2023-05-04T11:01:47.624Z,22.15
2023-05-04T11:11:53.974Z,21.52
2023-05-04T11:21:58.231Z,21.01
2023-05-04T11:32:01.936Z,20.05
2023-05-04T11:42:10.768Z,20.15
2023-05-04T11:52:14.943Z,20.87
2023-05-04T12:02:19.022Z,21.01
2023-05-04T12:12:36.065Z,21.75
2023-05-04T12:22:39.785Z,21.89
2023-05-04T12:32:44.193Z,21.77
2023-05-04T12:42:48.120Z,21.71
2023-05-04T12:52:51.664Z,21.91
2023-05-04T13:02:55.208Z,21.70
2023-05-04T13:12:58.899Z,21.78
2023-05-04T13:23:04.478Z,21.62
2023-05-04T13:33:20.610Z,21.40
2023-05-04T13:43:32.109Z,21.57
2023-05-04T13:53:35.850Z,22.37
2023-05-04T14:03:39.453Z,21.99
2023-05-04T14:13:44.784Z,22.12
2023-05-04T14:23:48.498Z,21.89
2023-05-04T14:33:52.403Z,21.37
2023-05-04T14:44:00.627Z,21.26
2023-05-04T14:54:04.493Z,21.35
2023-05-04T15:04:08.181Z,21.45
2023-05-04T15:14:15.717Z,20.62
2023-05-04T15:24:19.325Z,20.43
2023-05-04T15:34:22.865Z,20.77
2023-05-04T15:44:29.866Z,20.88
2023-05-04T15:54:33.802Z,20.65
2023-05-04T16:04:38.786Z,19.20
2023-05-04T16:14:44.125Z,17.77
2023-05-04T16:24:50.293Z,17.46
2023-05-04T16:34:53.947Z,17.26
2023-05-04T16:44:58.795Z,16.42
2023-05-04T16:55:02.630Z,16.04
2023-05-04T17:05:10.627Z,15.52
2023-05-04T17:15:14.387Z,15.08
2023-05-04T17:25:20.563Z,14.81
2023-05-04T17:35:26.208Z,14.62
2023-05-04T17:45:30.440Z,14.58
2023-05-04T17:55:36.124Z,14.49
2023-05-04T18:05:43.922Z,14.30
2023-05-04T18:15:47.865Z,14.10
2023-05-04T18:25:51.562Z,13.86
2023-05-04T18:35:55.345Z,13.48
2023-05-04T18:46:10.144Z,13.23
2023-05-04T18:56:13.942Z,13.06
2023-05-04T19:06:17.714Z,12.82
2023-05-04T19:16:22.854Z,12.56
2023-05-04T19:26:28.881Z,12.36
2023-05-04T19:36:34.802Z,12.18
2023-05-04T19:46:41.704Z,12.01
2023-05-04T19:56:45.414Z,11.83
2023-05-04T20:06:49.167Z,11.87
2023-05-04T20:16:56.014Z,11.89
2023-05-04T20:27:00.412Z,11.83
2023-05-04T20:37:03.994Z,11.47
2023-05-04T20:47:10.846Z,11.40
2023-05-04T20:57:14.606Z,11.35
2023-05-04T21:07:18.460Z,10.97
2023-05-04T21:17:25.774Z,10.64
2023-05-04T21:27:33.504Z,10.35
2023-05-04T21:37:37.499Z,10.31
2023-05-04T21:47:41.109Z,10.19
2023-05-04T21:57:46.697Z,10.16
2023-05-04T22:07:50.662Z,10.30
2023-05-04T22:17:59.389Z,10.27
2023-05-04T22:28:03.867Z,10.05
2023-05-04T22:39:11.326Z,10.05
2023-05-04T22:49:17.672Z,10.31
2023-05-04T22:59:21.269Z,10.48
2023-05-04T23:09:24.921Z,10.61
2023-05-04T23:19:32.065Z,10.84
2023-05-04T23:29:35.808Z,10.80
2023-05-04T23:39:40.291Z,10.62
2023-05-04T23:49:47.407Z,10.80
2023-05-04T23:59:52.583Z,10.48
